createdAt,value
2023-02-17T00:01:48.135Z,10.41
2023-02-17T00:04:14.616Z,10.40
2023-02-17T00:06:41.092Z,10.45
2023-02-17T00:09:07.685Z,10.32
2023-02-17T00:11:34.149Z,10.46
2023-02-17T00:14:00.801Z,10.27
2023-02-17T00:16:28.333Z,10.84
2023-02-17T00:19:00.918Z,10.48
2023-02-17T00:21:31.608Z,10.24
2023-02-17T00:23:58.615Z,10.41
2023-02-17T00:26:25.217Z,10.04
2023-02-17T00:28:51.792Z,10.23
2023-02-17T00:31:20.681Z,10.11
2023-02-17T00:33:47.837Z,10.59
2023-02-17T00:36:17.922Z,10.21
2023-02-17T00:38:45.008Z,10.29
2023-02-17T00:41:11.515Z,10.11
2023-02-17T00:43:38.054Z,10.13
2023-02-17T00:46:05.324Z,10.15
2023-02-17T00:48:32.494Z,10.69
2023-02-17T00:50:59.059Z,10.35
2023-02-17T00:53:25.557Z,10.51
2023-02-17T00:55:52.030Z,10.12
2023-02-17T00:58:18.494Z,10.55
2023-02-17T01:00:45.089Z,10.56
2023-02-17T01:03:11.634Z,10.41
2023-02-17T01:05:43.417Z,10.72
2023-02-17T01:08:10.328Z,10.88
2023-02-17T01:10:39.032Z,10.53
2023-02-17T01:13:06.691Z,10.25
2023-02-17T01:15:38.750Z,10.05
2023-02-17T01:18:05.509Z,10.69
2023-02-17T01:20:35.126Z,10.42
2023-02-17T01:23:02.001Z,10.48
2023-02-17T01:25:28.499Z,10.40
2023-02-17T01:27:55.046Z,10.66
2023-02-17T01:30:21.904Z,10.61
2023-02-17T01:32:48.862Z,10.43
2023-02-17T01:35:15.446Z,10.78
2023-02-17T01:37:41.887Z,10.77
2023-02-17T01:40:08.811Z,10.65
2023-02-17T01:42:35.290Z,10.86
2023-02-17T01:45:17.256Z,10.84
2023-02-17T01:47:54.082Z,10.98
2023-02-17T01:50:23.332Z,10.62
2023-02-17T01:52:49.975Z,10.65
2023-02-17T01:55:18.372Z,10.40
2023-02-17T01:57:45.791Z,10.83
2023-02-17T02:00:13.678Z,10.84
2023-02-17T02:02:42.418Z,10.51
2023-02-17T02:05:09.903Z,10.40
2023-02-17T02:07:39.293Z,10.90
2023-02-17T02:10:06.467Z,10.84
2023-02-17T02:12:35.565Z,10.85
2023-02-17T02:15:10.634Z,11.17
2023-02-17T02:18:07.977Z,10.98
2023-02-17T02:20:43.499Z,10.14
2023-02-17T02:23:12.968Z,10.90
2023-02-17T02:26:04.775Z,10.56
2023-02-17T02:28:52.932Z,10.84
2023-02-17T02:31:36.898Z,10.75
2023-02-17T02:34:09.868Z,10.72
2023-02-17T02:37:00.813Z,10.93
2023-02-17T02:39:30.457Z,10.78
2023-02-17T02:42:04.336Z,10.83
2023-02-17T02:44:30.996Z,11.21
2023-02-17T02:46:57.509Z,10.89
2023-02-17T02:49:24.479Z,10.74
2023-02-17T02:51:55.384Z,10.46
2023-02-17T02:54:28.422Z,10.99
2023-02-17T02:56:57.900Z,10.90
2023-02-17T02:59:44.699Z,10.82
2023-02-17T03:02:21.072Z,11.10
2023-02-17T03:05:12.768Z,11.15
2023-02-17T03:08:09.927Z,11.07
2023-02-17T03:10:36.868Z,11.17
2023-02-17T03:13:03.894Z,11.24
2023-02-17T03:15:33.379Z,11.30
2023-02-17T03:18:01.000Z,11.72
2023-02-17T03:20:33.030Z,11.24
2023-02-17T03:22:59.716Z,11.03
2023-02-17T03:25:26.223Z,11.00
2023-02-17T03:27:52.793Z,11.13
2023-02-17T03:30:19.503Z,11.26
2023-02-17T03:32:47.145Z,11.29
2023-02-17T03:35:14.099Z,11.37
2023-02-17T03:37:40.634Z,11.35
2023-02-17T03:40:08.267Z,11.20
2023-02-17T03:42:34.802Z,11.50
2023-02-17T03:45:01.304Z,11.54
2023-02-17T03:47:27.801Z,11.54
2023-02-17T03:49:54.368Z,11.82
2023-02-17T03:52:20.832Z,11.63
2023-02-17T03:54:47.333Z,11.72
2023-02-17T03:57:13.832Z,11.34
2023-02-17T03:59:40.302Z,11.13
2023-02-17T04:02:06.878Z,11.26
2023-02-17T04:04:33.413Z,11.32
2023-02-17T04:06:59.881Z,11.72
2023-02-17T04:09:26.491Z,11.60
2023-02-17T04:11:52.957Z,11.22
2023-02-17T04:14:19.472Z,11.07
2023-02-17T04:16:46.085Z,11.66
2023-02-17T04:19:12.621Z,11.52
2023-02-17T04:21:39.140Z,11.18
2023-02-17T04:24:05.924Z,11.21
2023-02-17T04:26:32.374Z,11.21
2023-02-17T04:28:58.862Z,11.46
2023-02-17T04:31:28.066Z,11.19
2023-02-17T04:33:55.045Z,11.32
2023-02-17T04:36:21.569Z,11.31
2023-02-17T04:38:48.234Z,11.44
2023-02-17T04:41:14.772Z,11.05
2023-02-17T04:43:41.391Z,11.49
2023-02-17T04:46:08.315Z,11.25
2023-02-17T04:48:35.139Z,11.39
2023-02-17T04:51:01.653Z,11.50
2023-02-17T04:53:28.134Z,11.09
2023-02-17T04:55:54.824Z,11.33
2023-02-17T04:58:21.984Z,11.46
2023-02-17T05:00:49.817Z,11.52
2023-02-17T05:03:17.448Z,11.46
2023-02-17T05:05:44.459Z,11.12
2023-02-17T05:08:11.080Z,11.40
2023-02-17T05:10:37.562Z,11.31
2023-02-17T05:13:04.025Z,11.37
2023-02-17T05:15:31.043Z,11.71
2023-02-17T05:17:58.493Z,11.33
2023-02-17T05:20:25.062Z,11.41
2023-02-17T05:22:51.514Z,11.79
2023-02-17T05:25:18.618Z,11.76
2023-02-17T05:27:45.182Z,11.57
2023-02-17T05:30:12.145Z,11.98
2023-02-17T05:32:38.602Z,11.46
2023-02-17T05:35:05.340Z,11.00
2023-02-17T05:37:31.774Z,11.69
2023-02-17T05:39:58.256Z,11.95
2023-02-17T05:42:28.753Z,11.62
2023-02-17T05:44:55.972Z,12.00
2023-02-17T05:47:23.239Z,11.77
2023-02-17T05:49:49.819Z,11.96
2023-02-17T05:52:18.213Z,11.56
2023-02-17T05:54:44.820Z,11.32
2023-02-17T05:57:11.262Z,11.46
2023-02-17T05:59:37.718Z,11.63
2023-02-17T06:02:04.155Z,11.15
2023-02-17T06:04:30.671Z,11.39
2023-02-17T06:06:57.154Z,11.20
2023-02-17T06:09:23.684Z,10.97
2023-02-17T06:11:50.147Z,11.26
2023-02-17T06:14:16.617Z,11.89
2023-02-17T06:16:43.041Z,11.65
2023-02-17T06:19:09.529Z,11.70
2023-02-17T06:21:36.118Z,11.24
2023-02-17T06:24:02.684Z,11.37
2023-02-17T06:26:29.164Z,11.17
2023-02-17T06:28:55.616Z,11.55
2023-02-17T06:31:22.196Z,11.76
2023-02-17T06:33:48.699Z,11.92
2023-02-17T06:36:16.264Z,11.45
2023-02-17T06:38:42.741Z,11.56
2023-02-17T06:41:09.829Z,11.53
2023-02-17T06:43:36.357Z,11.73
2023-02-17T06:46:02.889Z,11.53
2023-02-17T06:48:29.505Z,11.62
2023-02-17T06:50:55.972Z,11.42
2023-02-17T06:53:22.416Z,11.38
2023-02-17T06:55:48.899Z,11.58
2023-02-17T06:58:15.344Z,11.25
2023-02-17T07:00:41.847Z,11.50
2023-02-17T07:03:08.457Z,11.51
2023-02-17T07:05:36.604Z,11.66
2023-02-17T07:08:03.991Z,11.95
2023-02-17T07:10:31.060Z,11.82
2023-02-17T07:12:57.552Z,11.30
2023-02-17T07:15:24.027Z,11.48
2023-02-17T07:17:50.512Z,11.55
2023-02-17T07:20:17.203Z,11.61
2023-02-17T07:22:43.653Z,11.19
2023-02-17T07:25:10.223Z,10.90
2023-02-17T07:27:37.227Z,11.38
2023-02-17T07:30:05.083Z,11.64
2023-02-17T07:32:31.573Z,11.52
2023-02-17T07:34:58.071Z,11.45
2023-02-17T07:37:24.604Z,11.53
2023-02-17T07:39:52.404Z,11.79
2023-02-17T07:42:18.946Z,11.53
2023-02-17T07:44:45.433Z,11.73
2023-02-17T07:47:11.904Z,11.06
2023-02-17T07:49:38.436Z,11.40
2023-02-17T07:52:05.495Z,11.40
2023-02-17T07:54:32.116Z,11.19
2023-02-17T07:56:58.604Z,11.14
2023-02-17T07:59:25.053Z,11.25
2023-02-17T08:01:51.590Z,11.31
2023-02-17T08:04:18.194Z,11.31
2023-02-17T08:06:44.755Z,11.24
2023-02-17T08:09:29.766Z,11.19
2023-02-17T08:12:14.963Z,11.37
2023-02-17T08:14:41.467Z,11.35
2023-02-17T08:17:08.034Z,11.36
2023-02-17T08:19:47.419Z,11.46
2023-02-17T08:22:14.393Z,11.22
2023-02-17T08:24:40.916Z,11.38
2023-02-17T08:27:07.426Z,11.25
2023-02-17T08:29:33.907Z,11.19
2023-02-17T08:32:00.464Z,11.40
2023-02-17T08:34:28.188Z,11.47
2023-02-17T08:36:54.638Z,11.59
2023-02-17T08:39:21.110Z,11.05
2023-02-17T08:41:48.321Z,11.21
2023-02-17T08:44:17.411Z,11.07
2023-02-17T08:46:45.534Z,11.08
2023-02-17T08:49:13.737Z,11.32
2023-02-17T08:51:40.780Z,11.44
2023-02-17T08:54:08.387Z,11.50
2023-02-17T08:56:36.690Z,11.54
2023-02-17T08:59:03.656Z,10.88
2023-02-17T09:01:30.695Z,11.33
2023-02-17T09:04:00.105Z,11.18
2023-02-17T09:06:53.397Z,11.43
2023-02-17T09:09:28.392Z,11.36
2023-02-17T09:11:56.633Z,11.26
2023-02-17T09:14:25.423Z,11.50
2023-02-17T09:16:52.575Z,11.13
2023-02-17T09:19:19.369Z,11.33
2023-02-17T09:21:45.922Z,11.18
2023-02-17T09:24:12.439Z,11.51
2023-02-17T09:26:39.119Z,11.46
2023-02-17T09:29:06.204Z,11.07
2023-02-17T09:31:34.591Z,11.25
2023-02-17T09:34:01.751Z,11.55
2023-02-17T09:36:31.849Z,11.63
2023-02-17T09:38:58.919Z,11.42
2023-02-17T09:41:45.296Z,11.72
2023-02-17T09:44:39.636Z,11.68
2023-02-17T09:47:34.636Z,11.27
2023-02-17T09:50:07.953Z,11.42
2023-02-17T09:52:53.522Z,11.27
2023-02-17T09:55:33.854Z,11.72
2023-02-17T09:58:04.098Z,11.68
2023-02-17T10:00:34.097Z,11.27
2023-02-17T10:03:15.308Z,11.46
2023-02-17T10:05:55.698Z,11.12
2023-02-17T10:08:25.186Z,11.65
2023-02-17T10:11:04.946Z,11.26
2023-02-17T10:13:34.472Z,11.36
2023-02-17T10:16:10.466Z,11.58
2023-02-17T10:18:45.646Z,11.90
2023-02-17T10:21:27.245Z,11.39
2023-02-17T10:23:53.740Z,11.34
2023-02-17T10:26:39.392Z,11.66
2023-02-17T10:29:13.732Z,11.20
2023-02-17T10:31:45.920Z,11.36
2023-02-17T10:34:24.801Z,11.71
2023-02-17T10:36:52.206Z,11.56
2023-02-17T10:39:50.581Z,11.77
2023-02-17T10:42:34.259Z,11.60
2023-02-17T10:45:04.545Z,11.11
2023-02-17T10:47:31.240Z,11.11
2023-02-17T10:49:58.301Z,11.36
2023-02-17T10:52:32.800Z,11.83
2023-02-17T10:55:23.048Z,11.33
2023-02-17T10:57:54.707Z,11.65
2023-02-17T11:00:21.589Z,11.53
2023-02-17T11:02:51.539Z,11.39
2023-02-17T11:05:28.544Z,11.98
2023-02-17T11:08:23.782Z,11.56
2023-02-17T11:11:00.397Z,11.59
2023-02-17T11:13:39.328Z,11.50
2023-02-17T11:16:06.613Z,11.84
2023-02-17T11:18:35.934Z,11.62
2023-02-17T11:21:08.295Z,11.99
2023-02-17T11:23:35.783Z,12.14
2023-02-17T11:26:20.790Z,12.16
2023-02-17T11:28:47.282Z,12.05
2023-02-17T11:31:31.331Z,11.54
2023-02-17T11:33:57.989Z,11.55
2023-02-17T11:36:28.132Z,11.34
2023-02-17T11:38:54.867Z,11.59
2023-02-17T11:41:21.464Z,11.73
2023-02-17T11:43:56.296Z,11.47
2023-02-17T11:46:28.462Z,11.80
2023-02-17T11:49:07.777Z,11.86
2023-02-17T11:51:43.859Z,11.72
2023-02-17T11:54:55.659Z,12.04
2023-02-17T11:57:31.001Z,11.49
2023-02-17T12:00:17.735Z,11.58
2023-02-17T12:03:06.442Z,11.48
2023-02-17T12:05:51.744Z,11.53
2023-02-17T12:08:38.352Z,11.42
2023-02-17T12:11:09.969Z,11.27
2023-02-17T12:13:53.801Z,11.26
2023-02-17T12:16:34.356Z,11.87
2023-02-17T12:19:28.891Z,11.28
2023-02-17T12:22:02.689Z,11.99
2023-02-17T12:24:38.180Z,11.53
2023-02-17T12:27:16.644Z,11.81
2023-02-17T12:30:15.027Z,11.70
2023-02-17T12:32:50.574Z,11.52
2023-02-17T12:35:26.000Z,11.33
2023-02-17T12:38:01.320Z,11.15
2023-02-17T12:40:50.919Z,11.24
2023-02-17T12:43:39.960Z,11.39
2023-02-17T12:46:12.807Z,11.56
2023-02-17T12:49:03.180Z,11.60
2023-02-17T12:51:53.591Z,11.51
2023-02-17T12:54:32.954Z,11.33
2023-02-17T12:57:08.674Z,11.59
2023-02-17T12:59:40.131Z,11.65
2023-02-17T13:02:22.246Z,11.37
2023-02-17T13:04:54.292Z,11.79
2023-02-17T13:07:38.482Z,11.50
2023-02-17T13:10:05.985Z,11.60
2023-02-17T13:12:36.850Z,11.33
2023-02-17T13:15:07.077Z,11.60
2023-02-17T13:17:38.085Z,10.99
2023-02-17T13:20:10.517Z,11.43
2023-02-17T13:22:38.581Z,11.55
2023-02-17T13:25:05.579Z,11.55
2023-02-17T13:27:33.702Z,11.05
2023-02-17T13:30:10.132Z,11.19
2023-02-17T13:32:38.490Z,11.57
2023-02-17T13:35:18.191Z,11.68
2023-02-17T13:37:46.483Z,11.51
2023-02-17T13:40:16.021Z,11.71
2023-02-17T13:43:06.784Z,11.36
2023-02-17T13:45:39.848Z,11.35
2023-02-17T13:48:21.498Z,11.88
2023-02-17T13:50:56.826Z,11.35
2023-02-17T13:53:32.404Z,11.12
2023-02-17T13:56:04.351Z,11.46
2023-02-17T13:58:35.966Z,11.05
2023-02-17T14:01:04.453Z,11.30
2023-02-17T14:03:35.909Z,11.29
2023-02-17T14:06:03.550Z,10.89
2023-02-17T14:08:35.262Z,11.22
2023-02-17T14:11:11.899Z,11.36
2023-02-17T14:13:40.487Z,11.47
2023-02-17T14:16:07.670Z,11.17
2023-02-17T14:18:42.799Z,11.08
2023-02-17T14:21:13.029Z,11.17
2023-02-17T14:23:45.662Z,11.10
2023-02-17T14:26:33.972Z,11.19
2023-02-17T14:29:03.116Z,11.35
2023-02-17T14:31:29.868Z,10.53
2023-02-17T14:33:59.731Z,10.68
2023-02-17T14:36:38.003Z,10.42
2023-02-17T14:39:12.178Z,10.78
2023-02-17T14:41:38.647Z,10.92
2023-02-17T14:44:06.120Z,10.80
2023-02-17T14:46:33.533Z,10.44
2023-02-17T14:49:00.178Z,10.79
2023-02-17T14:51:32.992Z,10.28
2023-02-17T14:54:02.473Z,10.49
2023-02-17T14:56:35.140Z,10.19
2023-02-17T14:59:01.571Z,10.74
2023-02-17T15:01:28.701Z,10.48
2023-02-17T15:03:55.493Z,10.31
2023-02-17T15:06:30.212Z,10.34
2023-02-17T15:08:58.610Z,10.35
2023-02-17T15:11:32.371Z,9.95
2023-02-17T15:13:58.800Z,9.93
2023-02-17T15:16:25.299Z,10.35
2023-02-17T15:18:52.001Z,10.57
2023-02-17T15:21:29.092Z,10.14
2023-02-17T15:23:56.614Z,10.05
2023-02-17T15:26:23.285Z,10.18
2023-02-17T15:28:50.109Z,10.14
2023-02-17T15:31:17.411Z,10.29
2023-02-17T15:33:45.209Z,10.01
2023-02-17T15:36:16.954Z,10.01
2023-02-17T15:38:43.624Z,9.90
2023-02-17T15:41:14.864Z,10.26
2023-02-17T15:43:41.294Z,9.87
2023-02-17T15:46:13.823Z,10.11
2023-02-17T15:48:40.898Z,10.06
2023-02-17T15:51:10.890Z,9.82
2023-02-17T15:53:37.363Z,9.90
2023-02-17T15:56:04.716Z,9.56
2023-02-17T15:58:31.680Z,9.69
2023-02-17T16:01:02.164Z,9.78
2023-02-17T16:03:28.716Z,9.94
2023-02-17T16:05:55.268Z,9.90
2023-02-17T16:08:21.797Z,9.59
2023-02-17T16:10:50.220Z,9.49
2023-02-17T16:13:18.926Z,9.66
2023-02-17T16:15:46.519Z,9.85
2023-02-17T16:18:21.746Z,9.28
2023-02-17T16:20:48.700Z,9.40
2023-02-17T16:23:15.256Z,9.31
2023-02-17T16:25:44.508Z,9.35
2023-02-17T16:28:16.626Z,9.66
2023-02-17T16:30:43.646Z,9.38
2023-02-17T16:33:11.134Z,9.33
2023-02-17T16:35:37.754Z,9.80
2023-02-17T16:38:16.540Z,9.33
2023-02-17T16:40:48.903Z,9.16
2023-02-17T16:43:22.731Z,9.35
2023-02-17T16:45:55.750Z,9.08
2023-02-17T16:48:28.360Z,9.57
2023-02-17T16:50:55.515Z,8.94
2023-02-17T16:53:22.154Z,9.03
2023-02-17T16:55:49.314Z,9.40
2023-02-17T16:58:22.932Z,9.06
2023-02-17T17:00:54.718Z,9.12
2023-02-17T17:03:42.299Z,9.07
2023-02-17T17:06:29.976Z,8.67
2023-02-17T17:08:59.246Z,9.41
2023-02-17T17:11:29.907Z,9.23
2023-02-17T17:13:59.249Z,9.24
2023-02-17T17:16:36.258Z,8.91
2023-02-17T17:19:04.281Z,8.87
2023-02-17T17:21:32.625Z,8.91
2023-02-17T17:23:59.339Z,8.97
2023-02-17T17:26:36.304Z,8.88
2023-02-17T17:29:05.499Z,8.60
2023-02-17T17:31:35.323Z,9.45
2023-02-17T17:34:02.371Z,9.00
2023-02-17T17:36:39.336Z,8.76
2023-02-17T17:39:12.117Z,9.05
2023-02-17T17:41:40.474Z,9.03
2023-02-17T17:44:08.424Z,9.06
2023-02-17T17:46:37.926Z,8.91
2023-02-17T17:49:06.129Z,8.66
2023-02-17T17:51:33.884Z,9.20
2023-02-17T17:54:00.617Z,8.84
2023-02-17T17:56:32.823Z,8.91
2023-02-17T17:59:00.706Z,8.78
2023-02-17T18:01:27.689Z,8.97
2023-02-17T18:03:54.633Z,9.00
2023-02-17T18:06:43.011Z,8.47
2023-02-17T18:09:25.809Z,9.16
2023-02-17T18:11:58.486Z,9.26
2023-02-17T18:14:25.034Z,8.85
2023-02-17T18:16:51.902Z,8.97
2023-02-17T18:19:19.979Z,9.35
2023-02-17T18:21:47.738Z,8.88
2023-02-17T18:24:15.315Z,8.92
2023-02-17T18:26:42.692Z,8.99
2023-02-17T18:29:13.092Z,8.94
2023-02-17T18:31:39.693Z,8.79
2023-02-17T18:34:06.234Z,8.47
2023-02-17T18:36:32.700Z,8.63
2023-02-17T18:38:59.164Z,8.53
2023-02-17T18:41:30.242Z,8.61
2023-02-17T18:43:57.973Z,9.19
2023-02-17T18:46:26.757Z,8.76
2023-02-17T18:48:54.971Z,8.71
2023-02-17T18:51:23.445Z,8.73
2023-02-17T18:53:50.815Z,8.46
2023-02-17T18:56:22.503Z,8.68
2023-02-17T18:58:50.611Z,8.29
2023-02-17T19:01:19.730Z,8.52
2023-02-17T19:03:46.732Z,8.36
2023-02-17T19:06:16.218Z,8.43
2023-02-17T19:08:46.851Z,8.05
2023-02-17T19:11:15.178Z,8.14
2023-02-17T19:13:41.810Z,8.03
2023-02-17T19:16:15.153Z,8.20
2023-02-17T19:18:42.537Z,8.01
2023-02-17T19:21:09.171Z,7.83
2023-02-17T19:23:36.861Z,7.92
2023-02-17T19:26:08.461Z,7.82
2023-02-17T19:28:36.714Z,8.01
2023-02-17T19:31:10.053Z,8.14
2023-02-17T19:33:36.808Z,8.08
2023-02-17T19:36:12.045Z,8.28
2023-02-17T19:38:38.723Z,7.72
2023-02-17T19:41:08.015Z,7.86
2023-02-17T19:43:34.606Z,7.77
2023-02-17T19:46:01.556Z,8.01
2023-02-17T19:48:28.176Z,7.97
2023-02-17T19:51:06.352Z,7.78
2023-02-17T19:53:33.539Z,8.22
2023-02-17T19:56:14.214Z,8.04
2023-02-17T19:58:42.466Z,7.80
2023-02-17T20:01:11.566Z,8.07
2023-02-17T20:03:38.592Z,7.98
2023-02-17T20:06:10.771Z,8.42
2023-02-17T20:08:40.128Z,7.96
2023-02-17T20:11:08.661Z,8.12
2023-02-17T20:13:45.198Z,8.26
2023-02-17T20:16:14.315Z,8.00
2023-02-17T20:18:42.587Z,8.02
2023-02-17T20:21:10.797Z,7.92
2023-02-17T20:23:37.247Z,8.08
2023-02-17T20:26:09.184Z,8.16
2023-02-17T20:28:36.085Z,7.84
2023-02-17T20:31:03.134Z,8.31
2023-02-17T20:33:29.802Z,8.05
2023-02-17T20:35:56.281Z,8.18
2023-02-17T20:38:22.785Z,8.30
2023-02-17T20:40:49.371Z,7.83
2023-02-17T20:43:15.810Z,8.07
2023-02-17T20:45:42.833Z,8.00
2023-02-17T20:48:09.949Z,8.02
2023-02-17T20:50:36.478Z,8.55
2023-02-17T20:53:03.378Z,7.95
2023-02-17T20:55:30.135Z,8.54
2023-02-17T20:57:56.590Z,8.18
2023-02-17T21:00:25.089Z,8.56
2023-02-17T21:02:54.460Z,7.95
2023-02-17T21:05:22.445Z,8.05
2023-02-17T21:07:49.661Z,8.22
2023-02-17T21:10:21.948Z,8.41
2023-02-17T21:12:48.860Z,8.02
2023-02-17T21:15:15.895Z,8.48
2023-02-17T21:17:42.361Z,7.96
2023-02-17T21:20:11.422Z,8.05
2023-02-17T21:22:37.930Z,8.13
2023-02-17T21:25:05.293Z,7.88
2023-02-17T21:27:32.342Z,8.02
2023-02-17T21:29:59.037Z,7.92
2023-02-17T21:32:26.147Z,7.74
2023-02-17T21:34:52.670Z,8.14
2023-02-17T21:37:19.223Z,8.02
2023-02-17T21:39:47.791Z,7.92
2023-02-17T21:42:36.051Z,7.96
2023-02-17T21:45:02.653Z,8.25
2023-02-17T21:47:29.233Z,7.73
2023-02-17T21:49:55.766Z,7.93
2023-02-17T21:52:22.675Z,7.65
2023-02-17T21:54:49.162Z,7.98
2023-02-17T21:57:15.624Z,8.20
2023-02-17T21:59:44.087Z,8.38
2023-02-17T22:02:11.773Z,8.26
2023-02-17T22:04:38.234Z,8.40
2023-02-17T22:07:04.806Z,8.21
2023-02-17T22:09:31.283Z,8.29
2023-02-17T22:11:57.740Z,8.15
2023-02-17T22:14:25.699Z,8.28
2023-02-17T22:16:52.881Z,8.13
2023-02-17T22:19:22.680Z,7.98
2023-02-17T22:21:50.443Z,7.74
2023-02-17T22:24:18.171Z,8.08
2023-02-17T22:26:51.232Z,8.00
2023-02-17T22:29:18.740Z,7.80
2023-02-17T22:31:45.491Z,7.66
2023-02-17T22:34:13.385Z,7.72
2023-02-17T22:36:39.960Z,8.04
2023-02-17T22:39:07.889Z,7.93
2023-02-17T22:41:35.581Z,7.82
2023-02-17T22:44:03.079Z,8.01
2023-02-17T22:46:29.623Z,7.86
2023-02-17T22:48:56.615Z,7.75
2023-02-17T22:51:29.457Z,8.13
2023-02-17T22:53:56.067Z,7.63
2023-02-17T22:56:24.045Z,8.40
2023-02-17T22:58:55.733Z,7.95
2023-02-17T23:01:22.618Z,7.89
2023-02-17T23:03:54.316Z,8.17
2023-02-17T23:06:24.881Z,7.90
2023-02-17T23:08:52.825Z,7.90
2023-02-17T23:11:45.725Z,8.14
2023-02-17T23:14:13.825Z,7.92
2023-02-17T23:16:42.289Z,8.38
2023-02-17T23:19:11.441Z,8.54
2023-02-17T23:21:37.942Z,8.13
2023-02-17T23:24:04.701Z,7.74
2023-02-17T23:26:31.175Z,8.35
2023-02-17T23:28:57.644Z,8.27
2023-02-17T23:31:24.414Z,7.79
2023-02-17T23:33:51.948Z,7.88
2023-02-17T23:36:18.450Z,7.90
2023-02-17T23:38:44.916Z,7.78
2023-02-17T23:41:11.820Z,7.61
2023-02-17T23:43:38.357Z,7.90
2023-02-17T23:46:05.150Z,8.20
2023-02-17T23:48:31.705Z,7.83
2023-02-17T23:51:03.325Z,7.97
2023-02-17T23:53:30.830Z,7.43
2023-02-17T23:56:05.436Z,7.94
2023-02-17T23:58:32.362Z,7.83
